Relevés horaires Matro (Suisse)


Relevés horaires à Matro - Dimanche 03 Févr. 2019
Heure UTC1 Température [°C] Vent [km/h] Hum. [%] Pres.4 [hPa] Visi. [Km] Nébu. [octa] Préc.5 [mm] Cond.
2m. Res. Ros. Dir.2 Vit. Moy. Raf.3
23:00 -8.9 -19.6 -16.0 NNO 42.6 -- 90.7 56 850(3.1/3h) -- -- -- --
22:00 -9.1 -20.4 -16.1 NNO 48.2 -- 75.9 57 850(2.9/3h) -- -- -- --
21:00 -8.7 -20.5 -14.8 NNO 55.6 -- 79.6 61 850(2.5/3h) -- -- -- --
20:00 -8.5 -20.9 -15.6 NNO 64.8 -- 77.8 56 850(2.4/3h) -- -- -- --
19:00 -8.7 -20.2 -9.5 NNO 51.9 -- 75.9 94 850(2.9/3h) -- -- -- --
18:00 -9.7 -20.4 -9.7 NNO 40.7 -- 88.9 100 850(2.9/3h) -- -- -- --
17:00 -9.5 -20.6 -9.5 NNO 44.4 -- 75.9 100 850(2.5/3h) -- -- -- --
16:00 -8.5 -19.4 -8.5 NNO 46.3 -- 66.7 100 850(2.3/3h) -- -- -- --
15:00 -8.1 -18.3 -8.1 NNO 40.7 -- 88.9 100 850(2.3/3h) -- -- -- --
14:00 -7.5 -17.5 -7.5 NNO 40.7 -- 79.6 100 850(1.9/3h) -- -- -- --
13:00 -7.3 -17.6 -7.3 NO 44.4 -- 88.9 100 850(1.8/3h) -- -- -- --
12:00 -7.0 -17.5 -7.0 NO 48.2 -- 94.5 100 850(2.0/3h) -- -- -- --
11:00 -7.0 -17.4 -11.9 NO 46.3 -- 79.6 68 850(2.3/3h) -- -- -- --
10:00 -7.1 -17.7 -11.4 NO 48.2 -- 90.7 71 850(2.6/3h) -- -- -- --
09:00 -7.1 -18.9 -11.5 NNO 64.8 -- 94.5 71 850(2.4/3h) -- -- -- --
08:00 -7.0 -18.4 -11.6 NNO 59.3 -- 87.0 70 850(2.2/3h) -- -- -- --
07:00 -6.3 -17.6 -8.6 NO 61.1 -- 94.5 84 850(1.6/3h) -- -- -- --
06:00 -6.2 -16.9 -10.7 NNO 53.7 -- 87.0 70 850(1.2/3h) -- -- -- --
05:00 -5.2 -15.8 -9.6 NNO 57.4 -- 87.0 71 850(0.8/3h) -- -- -- --
04:00 -6.0 -16.3 -8.8 NNO 50.0 -- 81.5 80 850(1.1/3h) -- -- -- --
03:00 -5.4 -15.4 -7.7 NNO 48.2 -- 72.2 84 850(0.0/3h) -- -- -- --
02:00 -4.8 -13.7 -8.0 NNO 38.9 -- 59.3 78 850(-0.1/3h) -- -- -- --
01:00 -4.0 -12.8 -7.2 NO 40.7 -- 59.3 78 850(-0.5/3h) -- -- -- --
00:00 -4.6 -12.7 -6.2 NNO 31.5 -- 50.0 89 850(0.0/3h) -- -- -- --

1 Coordinated Universal Time. Actuellement il est 23:00 locale et 21:00 UTC.

2 Le vent souffle depuis la direction indiquée vers la direction oposée.

3 Les rafales max. sont disponible 40 min après l'heure du relevé.

4 Pour les stations d'altitude (plus de 600m) le géopotentiel du niveau le plus proche de la pression obligatoire est indiqué.

5 Les stations disposant d'un diffuseur peuvent indiquer "trace". Cela signifie que des précipitations ont touchés le sol mais que la quantité est inférieure à 0.1 mm.

Copyright

Les données affichées sur cette page sont la propriété exclusive de Météo Suisse.

Récapitulatif de la journée
Température [°C] Vent [km/h] Ensoleillement4 [h] Precipitations totale5 [mm] Pression [Hpa]
Min1 Max.2 Moy.3 Max. Min Max.
-6.4 -6.0 0 94.5 0 h 0 min 0 850.0 850.0

1 Température minimale relevée entre 18:00 UTC la veille et 18:00 UTC le jour donné.

2 Température maximale relevée entre 06:00 UTC le jour donné et 06:00 UTC le lendemain.

3 Vent moyen de la journée basé sur les relevés horaires.

4 Ensoleillement en heures relevé entre 06:00 UTC la veille et 06:00 UTC le jour donné.

5 Précipitations totales tombées entre 06:00 UTC la jour donné et 06:00 UTC le lendemain.

Graphiques horaires